Airfield :
LOGIN :

Register | Disclaimer

   EN    FR    IT 

 










Legend :    VFR   Marginal VFR   IFR   Intensive IFR   Very Intensive IFR
Visi :
Ceiling :
>= 8 km
>= 3000ft
5 to 8 km
1000 to 3000 ft
1500m to 5 km
500 to 1000 ft
800 to 1500m
200 to 500 ft
< 800m
< 200 ft
Symbols :   Thunderstorms  Fog  Heavy snow  Heavy precipitations  Wind > 20 kt
SIGMETs :     Misc.  Thunderstorms  Icing  Turbulence  Mountain Waves  Volcanic Ashes






- Airport Elevation : 464 ft
- IATA code : EVX


LFOE - Evreux

CURRENT METAR :
  • 182000Z AUTO 20010KT 9999 SCT035 BKN043 BKN120 04/02 Q1023 TEMPO 4000 -RA BECMG 21015G25KT BKN009 OVC025

EXPIRED METARs :
  • 181930Z AUTO 20008KT 9999 SCT044 OVC120 04/02 Q1023 TEMPO 4000 -RA BECMG 21015G25KT BKN009 OVC025
  • 181900Z AUTO 20007KT 9999 FEW043 OVC130 04/02 Q1023 BECMG 21015G25KT BKN009 OVC025
  • 181830Z AUTO 19008KT 9999 BKN043 BKN150 04/02 Q1024 BECMG 21015G25KT BKN009 OVC025
  • 181800Z AUTO 19008KT 9999 FEW049 BKN140 BKN190 04/02 Q1024 BECMG BKN009 OVC025
  • 181730Z AUTO 19008KT CAVOK 04/02 Q1024 BECMG BKN009 OVC025

TAF TAF LFOE
Valid from the 18 at 15:00 until the 19 at 15:00 UTC


181400Z 1815/1915 21009KT 9999 SCT030
BECMG 1818/1819 BKN009 OVC025
BECMG 1820/1821 21015G25KT
TEMPO 1821/1903 4000 -RA
BECMG 1911/1913 SCT020



MET'MAP, your aeronautical weather chart ! - Copyright ORBIFLY December 2007 - Disclaimer

ORBIFLY MET'MAP TEAM :

Programming & Development : Alexandra Zaïnal
Concept & original design : Baudouin d'Aumeries
Assistance for programming : Marc-Olivier Méhu
Technical & hardware support : Manuel Goepfert

Contact : metmap@orbifly.com




SOURCES & CREDITS :

   NOAA